Time;durP1;ratioP1;P1;durP2;ratioP2;P2;SDS_P1;SDS_P2;PMS_P1;PMS_P2;Temp;Humidity;BMP_temperature;BMP_pressure;BME280_temperature;BME280_humidity;BME280_pressure;Samples;Min_cycle;Max_cycle;Signal;HPM_P1;HPM_P2
2023/05/09 00:01:23;;;;;;;6.55;5.43;;;19.20;99.90;;;;;;10153845;28;20189;-59
2023/05/09 00:06:14;;;;;;;9.10;5.85;;;19.00;99.90;;;;;;10126617;28;20493;-60
2023/05/09 00:11:04;;;;;;;8.00;5.50;;;19.20;99.90;;;;;;10136068;28;20095;-60
2023/05/09 00:15:58;;;;;;;7.40;5.72;;;19.20;99.90;;;;;;10133804;28;20394;-60
2023/05/09 00:20:49;;;;;;;8.32;6.30;;;19.20;99.90;;;;;;10137741;28;20048;-59
2023/05/09 00:25:40;;;;;;;8.73;5.28;;;19.20;99.90;;;;;;10148813;28;20036;-58
2023/05/09 00:30:31;;;;;;;8.68;6.60;;;19.20;99.90;;;;;;10161523;28;20040;-59
2023/05/09 00:35:21;;;;;;;8.48;5.88;;;19.00;99.90;;;;;;10160237;28;20111;-60
2023/05/09 00:40:12;;;;;;;8.20;6.15;;;18.80;99.90;;;;;;10124446;28;20486;-60
2023/05/09 00:45:03;;;;;;;9.65;6.22;;;18.80;99.90;;;;;;10143617;28;20028;-60
2023/05/09 00:49:56;;;;;;;9.57;6.18;;;18.60;99.90;;;;;;10143392;28;20094;-59
2023/05/09 00:54:46;;;;;;;11.82;5.95;;;18.60;99.90;;;;;;10134634;28;20029;-60
2023/05/09 00:59:37;;;;;;;12.13;6.85;;;18.70;99.90;;;;;;10134584;28;20039;-59
2023/05/09 01:04:28;;;;;;;11.48;6.88;;;18.60;99.90;;;;;;10114644;28;20024;-60
2023/05/09 01:09:37;;;;;;;11.55;7.13;;;18.70;99.90;;;;;;10150713;28;20119;-61
2023/05/09 01:14:52;;;;;;;9.93;6.28;;;18.60;99.90;;;;;;10138626;28;20032;-61
2023/05/09 01:20:13;;;;;;;9.82;6.47;;;18.50;99.90;;;;;;10134999;28;20164;-59
2023/05/09 01:25:28;;;;;;;11.23;7.15;;;18.50;99.90;;;;;;10128754;28;20494;-61
2023/05/09 01:30:19;;;;;;;9.45;5.65;;;18.40;99.90;;;;;;10147150;28;20089;-60
2023/05/09 01:35:13;;;;;;;6.82;4.57;;;18.60;99.90;;;;;;10137785;28;20190;-60
2023/05/09 01:40:13;;;;;;;6.60;4.57;;;18.50;99.90;;;;;;10118923;28;20520;-60
2023/05/09 01:45:05;;;;;;;7.30;4.07;;;18.50;99.90;;;;;;10141945;28;20087;-59
2023/05/09 01:49:56;;;;;;;6.32;4.72;;;18.60;99.90;;;;;;10141892;28;20048;-60
2023/05/09 01:54:48;;;;;;;5.40;3.75;;;18.60;99.90;;;;;;10124458;28;20108;-60
2023/05/09 01:59:43;;;;;;;5.57;3.85;;;18.60;99.90;;;;;;10143735;28;20027;-60
2023/05/09 02:04:35;;;;;;;4.80;2.97;;;18.70;99.90;;;;;;10136522;28;20584;-60
2023/05/09 02:09:26;;;;;;;5.45;3.47;;;18.80;99.90;;;;;;10174785;28;20031;-59
2023/05/09 02:14:16;;;;;;;4.65;2.88;;;18.80;99.90;;;;;;10146081;28;20048;-58
2023/05/09 02:19:07;;;;;;;3.80;3.00;;;18.80;99.90;;;;;;10146207;28;20020;-61
2023/05/09 02:23:58;;;;;;;4.05;2.78;;;18.70;99.90;;;;;;10148331;28;20104;-60
2023/05/09 02:28:49;;;;;;;4.18;3.10;;;18.70;99.90;;;;;;10157480;28;20025;-61
2023/05/09 02:33:41;;;;;;;3.72;2.58;;;18.70;99.90;;;;;;10171861;28;20576;-59
2023/05/09 02:38:33;;;;;;;3.83;2.65;;;18.60;99.90;;;;;;10160299;28;20020;-63
2023/05/09 02:43:23;;;;;;;3.47;2.38;;;18.50;99.90;;;;;;10144675;28;20043;-64
2023/05/09 02:48:14;;;;;;;4.95;2.25;;;18.40;99.90;;;;;;10153980;28;20066;-67
2023/05/09 02:53:05;;;;;;;4.75;2.60;;;18.40;99.90;;;;;;10158682;28;20044;-61
2023/05/09 02:57:55;;;;;;;4.25;2.70;;;18.30;99.90;;;;;;10158781;28;20373;-64
2023/05/09 03:02:46;;;;;;;5.60;3.45;;;18.30;99.90;;;;;;10131693;28;20025;-61
2023/05/09 03:07:37;;;;;;;5.53;3.67;;;18.30;99.90;;;;;;10125129;28;20035;-65
2023/05/09 03:12:27;;;;;;;4.55;2.90;;;18.40;99.90;;;;;;10130872;28;20043;-61
2023/05/09 03:17:20;;;;;;;3.85;3.08;;;18.40;99.90;;;;;;10139284;28;20029;-62
2023/05/09 03:22:10;;;;;;;6.28;3.50;;;18.40;99.90;;;;;;10136732;28;20433;-60
2023/05/09 03:27:01;;;;;;;4.28;3.38;;;18.40;99.90;;;;;;10139035;28;20032;-63
2023/05/09 03:31:51;;;;;;;4.88;3.30;;;18.30;99.90;;;;;;10119705;28;20657;-58
2023/05/09 03:36:43;;;;;;;4.65;3.03;;;18.30;99.90;;;;;;10149510;28;20035;-59
2023/05/09 03:41:35;;;;;;;4.03;2.83;;;18.30;99.90;;;;;;10138291;28;20039;-58
2023/05/09 03:46:25;;;;;;;4.70;3.72;;;18.40;99.90;;;;;;10136526;28;20024;-65
2023/05/09 03:51:16;;;;;;;6.72;3.78;;;18.40;99.90;;;;;;10136418;28;20075;-61
2023/05/09 03:56:06;;;;;;;7.15;3.92;;;18.50;99.90;;;;;;10134810;28;20036;-62
2023/05/09 04:00:57;;;;;;;5.22;4.53;;;18.50;99.90;;;;;;10142709;28;20111;-59
2023/05/09 04:05:48;;;;;;;7.53;4.13;;;18.50;99.90;;;;;;10159081;28;20501;-60
2023/05/09 04:10:38;;;;;;;6.80;4.80;;;18.40;99.90;;;;;;10144844;28;20047;-61
2023/05/09 04:15:29;;;;;;;5.70;3.85;;;18.40;99.90;;;;;;10125626;28;20532;-60
2023/05/09 04:20:20;;;;;;;5.45;4.13;;;18.40;99.90;;;;;;10146896;28;20031;-64
2023/05/09 04:25:13;;;;;;;9.18;4.65;;;18.40;99.90;;;;;;10136439;28;20025;-59
2023/05/09 04:30:07;;;;;;;6.07;4.35;;;18.50;99.90;;;;;;10137889;28;20078;-63
2023/05/09 04:34:58;;;;;;;6.93;4.15;;;18.60;99.90;;;;;;10141397;28;20478;-60
2023/05/09 04:39:48;;;;;;;10.18;4.60;;;18.70;99.90;;;;;;10134491;28;20025;-61
2023/05/09 04:44:39;;;;;;;8.07;5.38;;;18.70;99.90;;;;;;10136982;28;20472;-63
2023/05/09 04:49:30;;;;;;;9.75;6.32;;;18.70;99.90;;;;;;10135650;28;20048;-64
2023/05/09 04:54:20;;;;;;;11.43;6.28;;;18.60;99.90;;;;;;10135329;28;20510;-68
2023/05/09 04:59:11;;;;;;;10.13;5.68;;;18.60;99.90;;;;;;10138889;28;20043;-66
2023/05/09 05:04:01;;;;;;;7.35;4.63;;;18.50;99.90;;;;;;10126350;28;20035;-65
2023/05/09 05:08:52;;;;;;;10.32;4.88;;;18.50;99.90;;;;;;10125658;28;20502;-67
2023/05/09 05:13:43;;;;;;;9.10;5.93;;;18.50;99.90;;;;;;10147113;28;20047;-67
2023/05/09 05:18:34;;;;;;;7.78;5.22;;;18.60;99.90;;;;;;10140672;28;20032;-59
2023/05/09 05:23:24;;;;;;;8.93;5.57;;;18.70;99.90;;;;;;10141234;28;20032;-66
2023/05/09 05:28:15;;;;;;;8.32;5.60;;;18.60;99.90;;;;;;10145838;28;20032;-63
2023/05/09 05:33:06;;;;;;;9.32;5.90;;;18.70;99.90;;;;;;10145178;28;20051;-60
2023/05/09 05:37:57;;;;;;;8.00;5.88;;;18.70;99.90;;;;;;10143513;28;20025;-60
2023/05/09 05:42:47;;;;;;;10.75;6.47;;;18.70;99.90;;;;;;10145741;28;20782;-66
2023/05/09 05:47:38;;;;;;;8.50;5.80;;;18.70;99.90;;;;;;10141375;28;20025;-59
2023/05/09 05:52:29;;;;;;;6.88;4.78;;;18.70;99.90;;;;;;10141390;28;20504;-59
2023/05/09 05:57:20;;;;;;;7.68;6.40;;;18.70;99.90;;;;;;10140798;28;20013;-68
2023/05/09 06:02:12;;;;;;;6.22;4.78;;;18.90;99.90;;;;;;10137637;28;20037;-64
2023/05/09 06:07:02;;;;;;;9.93;5.65;;;18.70;99.90;;;;;;10113158;28;20035;-60
2023/05/09 06:11:53;;;;;;;7.50;4.80;;;18.80;99.90;;;;;;10136311;28;20495;-59
2023/05/09 06:16:44;;;;;;;6.43;4.68;;;18.80;99.90;;;;;;10141073;28;20032;-67
2023/05/09 06:21:34;;;;;;;8.73;4.72;;;19.00;99.90;;;;;;10136535;28;20024;-59
2023/05/09 06:26:25;;;;;;;8.30;5.07;;;19.00;99.90;;;;;;10152941;28;20036;-62
2023/05/09 06:31:16;;;;;;;6.85;4.78;;;18.90;99.90;;;;;;10160892;28;20041;-65
2023/05/09 06:36:07;;;;;;;6.63;4.45;;;18.90;99.90;;;;;;10134092;28;20028;-61
2023/05/09 06:40:58;;;;;;;5.72;4.53;;;19.00;99.90;;;;;;10141695;28;20028;-67
2023/05/09 06:45:48;;;;;;;7.45;4.63;;;18.90;99.90;;;;;;10147724;28;20422;-60
2023/05/09 06:50:39;;;;;;;7.15;4.80;;;19.00;99.90;;;;;;10153182;28;20049;-69
2023/05/09 06:55:29;;;;;;;6.78;4.72;;;19.00;99.90;;;;;;10144952;28;20380;-65
2023/05/09 07:00:21;;;;;;;5.75;4.22;;;18.90;99.90;;;;;;10147132;28;20445;-58
2023/05/09 07:05:11;;;;;;;7.68;5.03;;;19.20;99.90;;;;;;10131836;28;20410;-57
2023/05/09 07:10:05;;;;;;;6.80;5.15;;;19.30;99.90;;;;;;10129272;28;20104;-60
2023/05/09 07:14:56;;;;;;;7.45;4.60;;;19.40;99.90;;;;;;10137660;28;20028;-62
2023/05/09 07:19:46;;;;;;;8.85;5.35;;;19.50;99.90;;;;;;10139358;28;20016;-59
2023/05/09 07:24:37;;;;;;;7.75;4.00;;;19.60;99.90;;;;;;10139968;28;20039;-59
2023/05/09 07:29:28;;;;;;;6.65;4.50;;;19.80;99.90;;;;;;10162091;28;20079;-61
2023/05/09 07:34:19;;;;;;;8.13;4.90;;;20.00;99.90;;;;;;10158369;28;20036;-60
2023/05/09 07:39:10;;;;;;;4.90;3.90;;;20.20;99.90;;;;;;10139001;28;20051;-60
2023/05/09 07:44:00;;;;;;;6.50;4.07;;;20.30;99.90;;;;;;10146004;28;20031;-62
2023/05/09 07:48:51;;;;;;;5.10;3.80;;;20.50;99.90;;;;;;10133428;28;20083;-62
2023/05/09 07:53:42;;;;;;;8.38;4.90;;;20.90;99.90;;;;;;10145400;28;20040;-60
2023/05/09 07:58:32;;;;;;;6.10;3.83;;;21.20;99.90;;;;;;10156983;28;20024;-57
2023/05/09 08:03:23;;;;;;;4.93;3.47;;;21.50;99.90;;;;;;10143183;28;20032;-59
2023/05/09 08:08:14;;;;;;;4.32;3.63;;;21.40;99.90;;;;;;10139279;28;20032;-63
2023/05/09 08:13:05;;;;;;;6.68;3.17;;;21.10;99.90;;;;;;10144796;28;20563;-62
2023/05/09 08:17:55;;;;;;;7.72;4.03;;;20.60;99.90;;;;;;10140186;28;20036;-60
2023/05/09 08:22:46;;;;;;;5.80;4.00;;;20.10;99.90;;;;;;10141798;28;20060;-64
2023/05/09 08:27:36;;;;;;;6.40;4.70;;;19.80;99.90;;;;;;10149199;28;20426;-64
2023/05/09 08:32:27;;;;;;;6.07;4.85;;;19.50;99.90;;;;;;10142143;28;20044;-60
2023/05/09 08:37:18;;;;;;;5.75;3.97;;;19.60;99.90;;;;;;10134803;28;20031;-60
2023/05/09 08:42:09;;;;;;;8.50;5.55;;;19.70;99.90;;;;;;10131549;28;20032;-64
2023/05/09 08:47:01;;;;;;;7.57;4.70;;;19.90;99.90;;;;;;10141197;28;20103;-59
2023/05/09 08:51:53;;;;;;;7.35;3.92;;;20.20;99.90;;;;;;10142019;28;20044;-61
2023/05/09 08:56:44;;;;;;;7.93;4.78;;;20.30;99.90;;;;;;10145046;28;20456;-63
2023/05/09 09:01:34;;;;;;;9.90;5.28;;;20.10;99.90;;;;;;10145314;28;20027;-60
2023/05/09 09:06:28;;;;;;;6.10;4.63;;;19.80;99.90;;;;;;10150910;28;20024;-61
2023/05/09 09:11:21;;;;;;;7.28;4.95;;;20.10;99.90;;;;;;10158320;28;20037;-60
2023/05/09 09:16:21;;;;;;;7.15;4.28;;;20.30;99.90;;;;;;10144106;28;20054;-61
2023/05/09 09:21:15;;;;;;;8.98;5.43;;;20.70;99.90;;;;;;10146907;28;20118;-64
2023/05/09 09:26:05;;;;;;;5.07;3.63;;;21.00;99.90;;;;;;10153053;28;20063;-59
2023/05/09 09:30:56;;;;;;;5.20;3.97;;;21.20;99.90;;;;;;10162407;28;20051;-63
2023/05/09 09:35:51;;;;;;;5.40;4.75;;;21.70;99.90;;;;;;10165193;28;20150;-61
2023/05/09 09:40:57;;;;;;;10.15;4.20;;;21.80;99.90;;;;;;10153529;28;20044;-62
2023/05/09 09:45:52;;;;;;;5.47;3.70;;;22.10;99.90;;;;;;10148168;28;20418;-64
2023/05/09 09:50:42;;;;;;;7.55;3.22;;;22.40;99.90;;;;;;10150983;28;20431;-60
2023/05/09 09:55:34;;;;;;;4.35;2.75;;;22.50;99.90;;;;;;10154665;28;20028;-59
2023/05/09 10:00:27;;;;;;;4.45;3.40;;;22.50;99.90;;;;;;10155972;28;20029;-62
2023/05/09 10:05:22;;;;;;;4.85;3.30;;;22.10;99.90;;;;;;10141100;28;20027;-62
2023/05/09 10:10:12;;;;;;;5.32;2.70;;;22.20;99.90;;;;;;10163525;28;20055;-66
2023/05/09 10:15:05;;;;;;;7.43;2.70;;;22.30;99.90;;;;;;10142261;28;20047;-65
2023/05/09 10:19:59;;;;;;;4.05;3.65;;;22.50;99.90;;;;;;10143165;28;20037;-63
2023/05/09 10:25:02;;;;;;;2.60;2.40;;;22.70;99.90;;;;;;10133577;28;20028;-64
2023/05/09 10:30:06;;;;;;;5.10;2.67;;;22.80;99.90;;;;;;10138657;28;20131;-60
2023/05/09 10:35:03;;;;;;;3.20;2.65;;;22.80;99.90;;;;;;10121883;28;20098;-59
2023/05/09 10:39:54;;;;;;;4.47;2.67;;;23.00;99.90;;;;;;10135951;28;20037;-60
2023/05/09 10:44:48;;;;;;;3.92;3.03;;;22.90;99.90;;;;;;10139073;28;20044;-59
2023/05/09 10:49:40;;;;;;;8.18;5.63;;;22.60;99.90;;;;;;10133323;28;20075;-59
2023/05/09 10:54:33;;;;;;;5.30;3.05;;;22.80;99.90;;;;;;10142393;28;20162;-61
2023/05/09 10:59:35;;;;;;;4.90;2.25;;;22.80;99.90;;;;;;10137411;28;20036;-60
2023/05/09 11:04:25;;;;;;;3.55;2.38;;;23.10;99.90;;;;;;10139325;28;20364;-61
2023/05/09 11:09:27;;;;;;;3.30;2.22;;;23.20;99.90;;;;;;10133201;28;20099;-61
2023/05/09 11:14:30;;;;;;;2.38;2.10;;;23.40;99.90;;;;;;10137987;28;20060;-59
2023/05/09 11:19:50;;;;;;;5.60;2.78;;;23.60;99.90;;;;;;10120316;28;20035;-63
2023/05/09 11:24:46;;;;;;;2.63;1.95;;;23.70;99.90;;;;;;10097428;28;20047;-60
2023/05/09 11:29:49;;;;;;;3.78;2.30;;;23.80;99.90;;;;;;10131708;28;20055;-63
2023/05/09 11:34:43;;;;;;;3.83;2.63;;;23.80;99.90;;;;;;10145821;28;20043;-59
2023/05/09 11:39:35;;;;;;;2.85;1.90;;;24.00;99.90;;;;;;10136281;28;20025;-63
2023/05/09 11:44:26;;;;;;;2.63;2.30;;;23.90;99.90;;;;;;10136925;28;20042;-64
2023/05/09 11:49:19;;;;;;;3.55;2.05;;;23.70;99.90;;;;;;10146070;28;20045;-58
2023/05/09 11:54:12;;;;;;;2.28;2.00;;;23.70;99.90;;;;;;10117682;28;20046;-59
2023/05/09 11:59:03;;;;;;;3.30;2.50;;;23.90;99.90;;;;;;10131888;28;20573;-59
2023/05/09 12:03:53;;;;;;;3.33;2.60;;;24.10;99.90;;;;;;10116259;28;20131;-59
2023/05/09 12:08:45;;;;;;;4.43;2.38;;;24.10;99.90;;;;;;10151143;28;20035;-60
2023/05/09 12:13:44;;;;;;;2.20;1.98;;;24.20;99.90;;;;;;10143653;28;20040;-59
2023/05/09 12:18:35;;;;;;;4.13;2.58;;;24.20;99.90;;;;;;10131580;28;20431;-59
2023/05/09 12:23:25;;;;;;;2.22;1.80;;;24.20;99.90;;;;;;10141534;28;20240;-61
2023/05/09 12:28:17;;;;;;;2.13;1.90;;;24.30;99.90;;;;;;10144373;28;20094;-60
2023/05/09 12:33:11;;;;;;;2.30;1.90;;;24.20;99.90;;;;;;10160464;28;20483;-59
2023/05/09 12:38:02;;;;;;;2.78;2.03;;;24.30;99.90;;;;;;10153235;28;20060;-60
2023/05/09 12:42:59;;;;;;;2.70;1.88;;;24.20;99.90;;;;;;10127873;28;20020;-62
2023/05/09 12:47:53;;;;;;;2.97;1.83;;;24.10;99.90;;;;;;10142615;28;20032;-60
2023/05/09 12:52:50;;;;;;;2.47;1.63;;;24.30;99.90;;;;;;10148795;28;20448;-65
2023/05/09 12:57:41;;;;;;;2.17;1.77;;;24.40;99.90;;;;;;10155661;28;20043;-64
2023/05/09 13:02:37;;;;;;;2.67;2.00;;;24.20;99.90;;;;;;10155198;28;20040;-61
2023/05/09 13:07:27;;;;;;;1.95;1.60;;;24.00;99.90;;;;;;10131166;28;20035;-63
2023/05/09 13:12:19;;;;;;;2.40;1.65;;;24.10;99.90;;;;;;10159461;28;20052;-60
2023/05/09 13:17:10;;;;;;;2.17;1.80;;;24.20;99.90;;;;;;10135513;28;20029;-61
2023/05/09 13:22:00;;;;;;;2.38;1.73;;;24.10;99.90;;;;;;10134066;28;20040;-61
2023/05/09 13:26:51;;;;;;;2.63;2.00;;;24.30;99.80;;;;;;10133892;28;20044;-62
2023/05/09 13:31:42;;;;;;;2.22;2.03;;;24.30;99.60;;;;;;10118639;28;20048;-63
2023/05/09 13:36:32;;;;;;;2.95;1.90;;;24.20;99.50;;;;;;10141084;28;20379;-63
2023/05/09 13:41:23;;;;;;;2.50;1.58;;;24.30;99.50;;;;;;10142800;28;20123;-66
2023/05/09 13:46:14;;;;;;;2.35;1.50;;;24.20;99.20;;;;;;10140051;28;20032;-62
2023/05/09 13:51:06;;;;;;;1.67;1.55;;;24.30;99.10;;;;;;10139911;28;20097;-60
2023/05/09 13:55:57;;;;;;;3.35;2.10;;;24.30;99.00;;;;;;10142080;28;20025;-60
2023/05/09 14:00:47;;;;;;;3.10;1.90;;;24.00;99.10;;;;;;10148638;28;20124;-63
2023/05/09 14:05:38;;;;;;;4.07;2.55;;;24.00;99.20;;;;;;10130723;28;20055;-59
2023/05/09 14:10:29;;;;;;;4.90;2.22;;;23.90;99.10;;;;;;10146094;28;20541;-62
2023/05/09 14:15:19;;;;;;;3.28;2.85;;;23.70;99.10;;;;;;10153965;28;20283;-64
2023/05/09 14:20:11;;;;;;;2.80;1.85;;;23.40;99.30;;;;;;10145117;28;20619;-65
2023/05/09 14:25:02;;;;;;;2.70;1.70;;;23.50;99.10;;;;;;10151602;28;20060;-67
2023/05/09 14:29:53;;;;;;;1.58;1.33;;;23.50;99.10;;;;;;10155866;28;20493;-61
2023/05/09 14:34:44;;;;;;;4.72;1.67;;;23.30;99.10;;;;;;10170734;28;20113;-67
2023/05/09 14:39:35;;;;;;;2.47;2.08;;;23.10;99.10;;;;;;10164691;28;20048;-65
2023/05/09 14:44:26;;;;;;;2.83;2.08;;;23.00;99.10;;;;;;10141072;28;20040;-60
2023/05/09 14:49:16;;;;;;;1.98;1.83;;;22.70;99.20;;;;;;10150489;28;20069;-62
2023/05/09 14:54:07;;;;;;;2.97;1.95;;;22.50;99.30;;;;;;10155643;28;20102;-61
2023/05/09 14:58:58;;;;;;;2.83;1.98;;;22.60;99.30;;;;;;10129960;28;20066;-63
2023/05/09 15:03:48;;;;;;;2.92;1.73;;;22.40;99.40;;;;;;10145102;28;20035;-61
2023/05/09 15:08:39;;;;;;;2.05;1.88;;;22.40;99.60;;;;;;10138796;28;20077;-60
2023/05/09 15:13:30;;;;;;;2.15;1.95;;;22.10;99.90;;;;;;10136882;28;20040;-61
2023/05/09 15:18:22;;;;;;;2.70;2.10;;;21.90;99.90;;;;;;10146725;28;20086;-62
2023/05/09 15:23:13;;;;;;;3.00;2.70;;;21.80;99.90;;;;;;10127231;28;20314;-60
2023/05/09 15:28:04;;;;;;;2.08;1.70;;;21.50;99.90;;;;;;10152374;28;20033;-59
2023/05/09 15:32:55;;;;;;;3.10;1.30;;;20.60;99.90;;;;;;10169670;28;20097;-60
2023/05/09 15:37:45;;;;;;;6.05;2.17;;;19.70;99.90;;;;;;10163030;28;20082;-63
2023/05/09 15:42:37;;;;;;;1.98;1.13;;;19.20;99.90;;;;;;10140008;28;20036;-62
2023/05/09 15:47:27;;;;;;;6.03;2.10;;;19.20;99.90;;;;;;10146233;28;20032;-63
2023/05/09 15:52:18;;;;;;;3.95;1.00;;;19.20;99.90;;;;;;10151151;28;20052;-64
2023/05/09 15:57:10;;;;;;;2.13;1.02;;;19.40;99.90;;;;;;10151642;28;20055;-62
2023/05/09 16:02:01;;;;;;;1.80;1.30;;;19.50;99.90;;;;;;10135528;28;20044;-60
2023/05/09 16:06:54;;;;;;;1.90;1.08;;;19.70;99.90;;;;;;10117120;28;20021;-62
2023/05/09 16:11:44;;;;;;;1.52;1.00;;;19.70;99.90;;;;;;10165427;28;20036;-61
2023/05/09 16:16:35;;;;;;;3.75;1.10;;;19.70;99.90;;;;;;10118828;28;20047;-63
2023/05/09 16:21:27;;;;;;;2.72;1.42;;;19.50;99.90;;;;;;10133869;28;20445;-60
2023/05/09 16:26:18;;;;;;;3.13;1.92;;;19.60;99.90;;;;;;10144275;28;20263;-60
2023/05/09 16:31:09;;;;;;;2.47;1.45;;;19.70;99.90;;;;;;10162177;28;20187;-58
2023/05/09 16:36:00;;;;;;;5.28;2.38;;;19.70;99.90;;;;;;10168194;28;20028;-60
2023/05/09 16:40:51;;;;;;;5.05;2.50;;;19.80;99.90;;;;;;10147506;28;20634;-57
2023/05/09 16:45:41;;;;;;;10.13;2.22;;;19.70;99.90;;;;;;10131212;28;20039;-60
2023/05/09 16:50:32;;;;;;;3.83;1.35;;;19.70;99.90;;;;;;10142509;28;20136;-63
2023/05/09 16:55:23;;;;;;;2.47;1.60;;;19.70;99.90;;;;;;10146315;28;20584;-59
2023/05/09 17:00:14;;;;;;;3.35;1.63;;;19.60;99.90;;;;;;10140466;28;20402;-60
2023/05/09 17:05:05;;;;;;;4.32;2.20;;;19.70;99.90;;;;;;10149652;28;20115;-58
2023/05/09 17:09:56;;;;;;;3.35;1.67;;;19.50;99.90;;;;;;10147771;28;20028;-63
2023/05/09 17:14:47;;;;;;;3.22;1.63;;;19.50;99.90;;;;;;10158071;28;20051;-64
2023/05/09 17:19:38;;;;;;;3.00;1.63;;;19.30;99.90;;;;;;10148490;28;20021;-64
2023/05/09 17:24:29;;;;;;;3.20;1.83;;;19.20;99.90;;;;;;10148147;28;20456;-65
2023/05/09 17:29:19;;;;;;;5.45;2.33;;;19.10;99.90;;;;;;10150204;28;20027;-60
2023/05/09 17:34:10;;;;;;;1.95;1.40;;;19.10;99.90;;;;;;10146254;28;20409;-65
2023/05/09 17:39:01;;;;;;;3.63;2.00;;;19.30;99.90;;;;;;10171189;28;20032;-65
2023/05/09 17:43:55;;;;;;;3.30;2.30;;;19.30;99.90;;;;;;10145086;28;20036;-61
2023/05/09 17:48:46;;;;;;;3.33;1.77;;;19.30;99.90;;;;;;10150990;28;20148;-63
2023/05/09 17:53:37;;;;;;;3.17;2.15;;;19.20;99.90;;;;;;10157340;28;20036;-62
2023/05/09 17:58:28;;;;;;;3.35;1.95;;;19.30;99.90;;;;;;10145485;28;20040;-64
2023/05/09 18:03:19;;;;;;;3.65;2.20;;;19.10;99.90;;;;;;10138661;28;20051;-61
2023/05/09 18:08:09;;;;;;;4.50;2.25;;;19.00;99.90;;;;;;10159049;28;20135;-64
2023/05/09 18:13:00;;;;;;;1.90;1.60;;;18.90;99.90;;;;;;10133932;28;20497;-60
2023/05/09 18:17:53;;;;;;;2.17;1.50;;;18.70;99.90;;;;;;10133248;28;20159;-62
2023/05/09 18:22:44;;;;;;;2.97;1.80;;;18.70;99.90;;;;;;10127369;28;20052;-63
2023/05/09 18:27:34;;;;;;;2.72;1.40;;;18.80;99.90;;;;;;10134191;28;20064;-66
2023/05/09 18:32:25;;;;;;;2.72;1.88;;;18.50;99.90;;;;;;10144914;28;20127;-64
2023/05/09 18:37:16;;;;;;;3.15;1.70;;;18.50;99.90;;;;;;10139625;28;20033;-64
2023/05/09 18:42:07;;;;;;;1.95;1.67;;;18.50;99.90;;;;;;10138681;28;20127;-61
2023/05/09 18:46:57;;;;;;;1.45;1.30;;;18.50;99.90;;;;;;10146211;28;20030;-65
2023/05/09 18:51:48;;;;;;;2.20;1.52;;;18.40;99.90;;;;;;10156915;28;20411;-61
2023/05/09 18:56:40;;;;;;;5.30;1.63;;;18.40;99.90;;;;;;10159003;28;20058;-64
2023/05/09 19:01:31;;;;;;;2.38;1.52;;;18.50;99.90;;;;;;10141931;28;20040;-62
2023/05/09 19:06:22;;;;;;;3.75;1.75;;;18.40;99.90;;;;;;10154271;28;20043;-61
2023/05/09 19:11:13;;;;;;;3.92;1.35;;;18.30;99.90;;;;;;10153393;28;20040;-65
2023/05/09 19:16:05;;;;;;;1.63;1.50;;;18.20;99.90;;;;;;10133304;28;20020;-65
2023/05/09 19:20:59;;;;;;;3.60;2.17;;;18.10;99.90;;;;;;10132022;28;20031;-68
2023/05/09 19:25:52;;;;;;;5.30;2.10;;;18.20;99.90;;;;;;10113236;28;20375;-61
2023/05/09 19:30:43;;;;;;;1.88;1.30;;;18.40;99.90;;;;;;10145437;28;20036;-63
2023/05/09 19:35:35;;;;;;;2.85;1.85;;;18.30;99.90;;;;;;10144775;28;20131;-63
2023/05/09 19:40:25;;;;;;;4.13;2.22;;;18.20;99.90;;;;;;10128665;28;20021;-61
2023/05/09 19:45:16;;;;;;;4.30;1.95;;;18.00;99.90;;;;;;10127146;28;20111;-64
2023/05/09 19:50:07;;;;;;;3.25;1.83;;;18.00;99.90;;;;;;10141601;28;20422;-61
2023/05/09 19:54:58;;;;;;;1.48;1.10;;;17.90;99.90;;;;;;10140031;28;20137;-62
2023/05/09 19:59:48;;;;;;;3.63;1.45;;;17.90;99.90;;;;;;10152444;28;20563;-61
2023/05/09 20:04:45;;;;;;;3.53;1.27;;;17.80;99.90;;;;;;10135453;28;20181;-62
2023/05/09 20:09:35;;;;;;;3.88;1.40;;;17.80;99.90;;;;;;10138516;28;20581;-60
2023/05/09 20:14:26;;;;;;;2.38;1.40;;;17.90;99.90;;;;;;10139043;28;20144;-63
2023/05/09 20:19:17;;;;;;;3.78;1.60;;;17.90;99.90;;;;;;10143606;28;20036;-61
2023/05/09 20:24:07;;;;;;;1.95;1.15;;;17.70;99.90;;;;;;10150793;28;20028;-67
2023/05/09 20:29:00;;;;;;;2.17;1.52;;;17.50;99.90;;;;;;10156592;28;20189;-63
2023/05/09 20:33:53;;;;;;;1.80;1.25;;;17.50;99.90;;;;;;10155330;28;20056;-63
2023/05/09 20:38:43;;;;;;;3.28;1.67;;;17.40;99.90;;;;;;10138477;28;20119;-61
2023/05/09 20:43:34;;;;;;;1.42;1.33;;;17.40;99.90;;;;;;10158313;28;20120;-63
2023/05/09 20:48:25;;;;;;;2.35;1.65;;;17.50;99.90;;;;;;10147770;28;20183;-64
2023/05/09 20:53:16;;;;;;;3.00;2.20;;;17.60;99.90;;;;;;10154203;28;20047;-58
2023/05/09 20:58:06;;;;;;;4.07;1.95;;;17.50;99.90;;;;;;10169343;28;20037;-62
2023/05/09 21:02:57;;;;;;;2.83;1.35;;;17.40;99.90;;;;;;10155839;28;20038;-61
2023/05/09 21:07:48;;;;;;;1.30;0.98;;;17.40;99.90;;;;;;10166093;28;20050;-58
2023/05/09 21:12:38;;;;;;;2.97;1.02;;;17.20;99.90;;;;;;10166223;28;20032;-60
2023/05/09 21:17:30;;;;;;;2.03;1.10;;;17.20;99.90;;;;;;10164171;28;20032;-60
2023/05/09 21:22:20;;;;;;;3.75;1.13;;;17.10;99.90;;;;;;10167921;28;20484;-59
2023/05/09 21:27:11;;;;;;;2.08;1.02;;;17.00;99.90;;;;;;10137774;28;20032;-58
2023/05/09 21:32:01;;;;;;;1.60;1.00;;;17.00;99.90;;;;;;10148116;28;20048;-60
2023/05/09 21:36:52;;;;;;;1.10;0.88;;;17.10;99.90;;;;;;10148210;28;20482;-59
2023/05/09 21:41:43;;;;;;;2.13;1.52;;;17.10;99.90;;;;;;10164645;28;20460;-63
2023/05/09 21:46:34;;;;;;;1.33;1.13;;;17.00;99.90;;;;;;10172134;28;20020;-58
2023/05/09 21:51:25;;;;;;;1.67;1.20;;;16.90;99.90;;;;;;10176035;28;20118;-60
2023/05/09 21:56:15;;;;;;;2.50;0.88;;;16.90;99.90;;;;;;10150889;28;20060;-61
2023/05/09 22:01:06;;;;;;;1.80;1.63;;;16.80;99.90;;;;;;10141316;28;20035;-59
2023/05/09 22:05:56;;;;;;;3.50;1.02;;;16.80;99.90;;;;;;10140529;28;20025;-59
2023/05/09 22:10:47;;;;;;;3.15;1.02;;;16.70;99.90;;;;;;10161925;28;20120;-63
2023/05/09 22:15:38;;;;;;;1.05;0.80;;;16.70;99.90;;;;;;10140687;28;20016;-61
2023/05/09 22:20:28;;;;;;;0.43;0.40;;;16.40;99.90;;;;;;10166435;28;20032;-62
2023/05/09 22:25:19;;;;;;;1.00;0.40;;;16.20;99.90;;;;;;10161669;28;20027;-59
2023/05/09 22:30:11;;;;;;;0.60;0.40;;;16.00;99.90;;;;;;10140080;28;20064;-63
2023/05/09 22:35:01;;;;;;;0.88;0.30;;;16.10;99.90;;;;;;10143688;28;20036;-62
2023/05/09 22:39:52;;;;;;;0.73;0.30;;;16.10;99.90;;;;;;10139183;28;20069;-63
2023/05/09 22:44:43;;;;;;;0.93;0.60;;;16.00;99.90;;;;;;10173901;28;20028;-62
2023/05/09 22:49:34;;;;;;;0.68;0.38;;;16.10;99.90;;;;;;10157252;28;20088;-63
2023/05/09 22:54:25;;;;;;;0.40;0.30;;;16.00;99.90;;;;;;10138798;28;20028;-59
2023/05/09 22:59:16;;;;;;;0.70;0.52;;;16.20;99.90;;;;;;10141726;28;20034;-60
2023/05/09 23:04:06;;;;;;;0.75;0.50;;;16.30;99.90;;;;;;10157512;28;20465;-59
2023/05/09 23:08:57;;;;;;;0.50;0.40;;;16.30;99.90;;;;;;10158328;28;20054;-60
2023/05/09 23:13:48;;;;;;;3.22;1.30;;;16.40;99.90;;;;;;10138749;28;20036;-61
2023/05/09 23:18:38;;;;;;;2.55;0.77;;;16.30;99.90;;;;;;10138680;28;20567;-62
2023/05/09 23:23:29;;;;;;;2.97;0.60;;;16.30;99.90;;;;;;10159084;28;20046;-59
2023/05/09 23:28:23;;;;;;;1.65;0.90;;;16.30;99.90;;;;;;10148126;28;20028;-60
2023/05/09 23:33:15;;;;;;;0.67;0.53;;;16.40;99.90;;;;;;10150935;28;20569;-62
2023/05/09 23:38:05;;;;;;;2.35;0.77;;;16.30;99.90;;;;;;10137904;28;20036;-65
2023/05/09 23:42:56;;;;;;;2.17;0.98;;;16.50;99.90;;;;;;10145593;28;20036;-62
2023/05/09 23:47:47;;;;;;;2.15;1.10;;;16.50;99.90;;;;;;10144933;28;20147;-59
2023/05/09 23:52:40;;;;;;;1.35;0.70;;;16.50;99.90;;;;;;10137053;28;20188;-59
2023/05/09 23:57:31;;;;;;;1.30;0.63;;;16.40;99.90;;;;;;10118984;28;20426;-59
